createdAt,value
2022-07-31T00:00:27.883Z,94.20
2022-07-31T00:02:57.738Z,94.30
2022-07-31T00:05:25.795Z,94.30
2022-07-31T00:07:54.327Z,94.30
2022-07-31T00:10:22.283Z,94.30
2022-07-31T00:12:50.028Z,94.30
2022-07-31T00:15:17.911Z,94.40
2022-07-31T00:17:45.583Z,94.40
2022-07-31T00:20:14.782Z,94.50
2022-07-31T00:22:43.393Z,94.50
2022-07-31T00:25:12.111Z,94.60
2022-07-31T00:27:40.641Z,94.70
2022-07-31T00:30:09.136Z,94.80
2022-07-31T00:32:36.736Z,94.90
2022-07-31T00:35:04.751Z,95.00
2022-07-31T00:37:36.407Z,95.00
2022-07-31T00:40:09.632Z,95.10
2022-07-31T00:42:37.327Z,95.20
2022-07-31T00:45:05.751Z,95.10
2022-07-31T00:47:33.618Z,95.20
2022-07-31T00:50:01.360Z,95.20
2022-07-31T00:52:28.947Z,95.20
2022-07-31T00:54:56.482Z,95.30
2022-07-31T00:57:24.136Z,95.30
2022-07-31T00:59:51.755Z,95.30
2022-07-31T01:02:19.529Z,95.20
2022-07-31T01:04:47.059Z,95.20
2022-07-31T01:07:14.558Z,95.20
2022-07-31T01:09:42.541Z,95.20
2022-07-31T01:12:14.162Z,95.10
2022-07-31T01:14:48.421Z,95.30
2022-07-31T01:17:17.942Z,95.00
2022-07-31T01:19:47.577Z,94.90
2022-07-31T01:22:53.262Z,94.90
2022-07-31T01:25:46.276Z,95.10
2022-07-31T01:29:11.510Z,95.00
2022-07-31T01:31:48.017Z,95.00
2022-07-31T01:34:38.533Z,94.80
2022-07-31T01:37:21.078Z,95.10
2022-07-31T01:40:01.564Z,95.10
2022-07-31T01:42:31.868Z,95.10
2022-07-31T01:45:01.810Z,95.10
2022-07-31T01:47:32.997Z,95.20
2022-07-31T01:50:04.795Z,95.20
2022-07-31T01:52:33.409Z,95.30
2022-07-31T01:55:02.787Z,95.30
2022-07-31T01:57:32.738Z,95.30
2022-07-31T02:00:33.683Z,95.30
2022-07-31T02:02:57.066Z,95.40
2022-07-31T02:05:31.234Z,95.40
2022-07-31T02:07:59.135Z,95.30
2022-07-31T02:10:29.731Z,95.70
2022-07-31T02:12:58.694Z,95.40
2022-07-31T02:15:27.723Z,95.40
2022-07-31T02:17:56.743Z,95.40
2022-07-31T02:20:25.466Z,95.50
2022-07-31T02:22:58.758Z,95.60
2022-07-31T02:25:27.316Z,95.60
2022-07-31T02:27:59.214Z,95.70
2022-07-31T02:30:39.097Z,95.70
2022-07-31T02:33:18.486Z,95.80
2022-07-31T02:35:50.249Z,95.80
2022-07-31T02:38:23.287Z,95.70
2022-07-31T02:40:59.283Z,95.70
2022-07-31T02:43:32.358Z,95.70
2022-07-31T02:46:06.957Z,95.90
2022-07-31T02:48:37.123Z,95.80
2022-07-31T02:51:09.055Z,95.80
2022-07-31T02:53:37.937Z,95.80
2022-07-31T02:56:10.955Z,95.80
2022-07-31T02:58:44.302Z,96.00
2022-07-31T03:01:36.005Z,96.10
2022-07-31T03:04:04.052Z,96.10
2022-07-31T03:06:31.733Z,96.20
2022-07-31T03:08:59.719Z,96.30
2022-07-31T03:11:27.929Z,96.50
2022-07-31T03:13:58.294Z,97.10
2022-07-31T03:16:28.180Z,97.60
2022-07-31T03:18:57.952Z,97.60
2022-07-31T03:21:25.959Z,97.90
2022-07-31T03:23:53.939Z,98.10
2022-07-31T03:26:23.621Z,98.30
2022-07-31T03:28:51.374Z,98.40
2022-07-31T03:31:19.774Z,98.60
2022-07-31T03:33:47.756Z,98.70
2022-07-31T03:36:16.938Z,98.80
2022-07-31T03:38:48.779Z,98.90
2022-07-31T03:41:40.308Z,99.00
2022-07-31T03:44:08.938Z,99.10
2022-07-31T03:46:36.472Z,98.90
2022-07-31T03:49:05.170Z,99.30
2022-07-31T03:51:34.885Z,98.90
2022-07-31T03:54:02.592Z,99.00
2022-07-31T03:57:07.933Z,99.30
2022-07-31T03:59:40.636Z,99.70
2022-07-31T04:02:18.807Z,99.90
2022-07-31T04:04:50.891Z,99.90
2022-07-31T04:07:18.611Z,99.90
2022-07-31T04:09:46.416Z,99.90
2022-07-31T04:12:16.034Z,99.80
2022-07-31T04:14:43.828Z,99.70
2022-07-31T04:17:11.299Z,99.90
2022-07-31T04:19:39.345Z,99.60
2022-07-31T04:22:08.261Z,99.50
2022-07-31T04:24:36.697Z,99.40
2022-07-31T04:27:22.813Z,99.40
2022-07-31T04:29:50.373Z,99.30
2022-07-31T04:32:18.284Z,99.30
2022-07-31T04:34:52.349Z,99.30
2022-07-31T04:37:20.684Z,99.20
2022-07-31T04:39:48.545Z,99.20
2022-07-31T04:42:16.027Z,99.20
2022-07-31T04:44:45.144Z,99.20
2022-07-31T04:47:13.963Z,99.20
2022-07-31T04:49:43.883Z,99.10
2022-07-31T04:52:14.975Z,99.10
2022-07-31T04:54:45.515Z,99.00
2022-07-31T04:57:19.763Z,99.00
2022-07-31T04:59:57.921Z,98.90
2022-07-31T05:02:29.743Z,98.90
2022-07-31T05:04:58.066Z,98.90
2022-07-31T05:07:32.203Z,98.80
2022-07-31T05:10:05.083Z,98.80
2022-07-31T05:12:32.991Z,98.80
2022-07-31T05:15:00.664Z,98.80
2022-07-31T05:17:28.397Z,98.80
2022-07-31T05:20:15.486Z,98.90
2022-07-31T05:22:57.624Z,98.80
2022-07-31T05:25:41.861Z,98.70
2022-07-31T05:28:09.713Z,98.60
2022-07-31T05:30:37.675Z,98.50
2022-07-31T05:33:06.822Z,98.40
2022-07-31T05:35:35.015Z,98.20
2022-07-31T05:38:02.662Z,98.10
2022-07-31T05:40:51.208Z,98.00
2022-07-31T05:43:54.139Z,97.90
2022-07-31T05:46:25.600Z,97.80
2022-07-31T05:48:53.440Z,97.80
2022-07-31T05:51:21.139Z,97.80
2022-07-31T05:53:49.973Z,97.60
2022-07-31T05:56:36.044Z,97.50
2022-07-31T05:59:03.799Z,97.30
2022-07-31T06:01:31.842Z,97.10
2022-07-31T06:03:59.527Z,96.90
2022-07-31T06:06:32.561Z,96.80
2022-07-31T06:09:04.352Z,96.50
2022-07-31T06:11:36.840Z,96.40
2022-07-31T06:14:04.531Z,96.30
2022-07-31T06:16:55.163Z,96.20
2022-07-31T06:19:24.438Z,95.90
2022-07-31T06:21:53.947Z,95.70
2022-07-31T06:24:22.737Z,95.50
2022-07-31T06:26:50.365Z,95.30
2022-07-31T06:29:18.231Z,95.20
2022-07-31T06:31:46.184Z,94.90
2022-07-31T06:34:17.093Z,94.50
2022-07-31T06:36:49.628Z,94.20
2022-07-31T06:39:20.032Z,94.40
2022-07-31T06:41:50.461Z,94.30
2022-07-31T06:44:31.873Z,94.00
2022-07-31T06:47:23.842Z,93.90
2022-07-31T06:49:55.014Z,93.70
2022-07-31T06:52:26.548Z,93.60
2022-07-31T06:54:55.023Z,93.60
2022-07-31T06:57:22.659Z,93.60
2022-07-31T06:59:50.581Z,93.80
2022-07-31T07:02:18.767Z,94.00
2022-07-31T07:05:00.027Z,94.00
2022-07-31T07:07:36.557Z,93.90
2022-07-31T07:10:06.370Z,93.80
2022-07-31T07:12:54.115Z,93.40
2022-07-31T07:15:22.507Z,93.30
2022-07-31T07:17:50.591Z,93.00
2022-07-31T07:20:26.948Z,92.70
2022-07-31T07:22:54.718Z,92.10
2022-07-31T07:25:42.440Z,91.90
2022-07-31T07:28:29.395Z,91.50
2022-07-31T07:31:01.566Z,91.40
2022-07-31T07:33:41.115Z,91.30
2022-07-31T07:36:23.061Z,91.30
2022-07-31T07:38:56.504Z,91.00
2022-07-31T07:41:25.572Z,90.80
2022-07-31T07:43:53.757Z,90.60
2022-07-31T07:46:25.032Z,90.60
2022-07-31T07:48:56.918Z,90.50
2022-07-31T07:51:38.039Z,90.50
2022-07-31T07:54:48.753Z,90.40
2022-07-31T07:57:23.130Z,90.10
2022-07-31T08:00:11.783Z,90.20
2022-07-31T08:03:47.697Z,89.50
2022-07-31T08:05:39.263Z,89.40
2022-07-31T08:08:07.034Z,88.60
2022-07-31T08:10:49.827Z,89.00
2022-07-31T08:13:36.220Z,88.40
2022-07-31T08:16:20.298Z,88.00
2022-07-31T08:18:57.153Z,87.30
2022-07-31T08:21:26.669Z,86.80
2022-07-31T08:24:03.881Z,87.20
2022-07-31T08:26:54.923Z,87.50
2022-07-31T08:29:28.965Z,88.00
2022-07-31T08:32:14.150Z,88.00
2022-07-31T08:34:57.085Z,87.80
2022-07-31T08:38:02.686Z,87.40
2022-07-31T08:40:12.999Z,87.10
2022-07-31T08:42:40.584Z,87.00
2022-07-31T08:45:17.305Z,86.40
2022-07-31T08:47:56.231Z,86.40
2022-07-31T08:50:29.006Z,85.70
2022-07-31T08:53:05.110Z,85.60
2022-07-31T08:55:56.153Z,85.30
2022-07-31T08:58:37.240Z,83.90
2022-07-31T09:01:11.980Z,84.10
2022-07-31T09:03:42.508Z,84.10
2022-07-31T09:06:14.250Z,83.70
2022-07-31T09:08:42.752Z,84.20
2022-07-31T09:11:15.774Z,84.20
2022-07-31T09:14:05.232Z,84.20
2022-07-31T09:16:47.579Z,84.50
2022-07-31T09:19:53.047Z,85.00
2022-07-31T09:22:23.122Z,85.00
2022-07-31T09:24:51.899Z,85.10
2022-07-31T09:27:20.401Z,85.20
2022-07-31T09:29:52.774Z,85.40
2022-07-31T09:32:36.342Z,85.50
2022-07-31T09:35:18.849Z,85.40
2022-07-31T09:37:48.196Z,85.40
2022-07-31T09:40:41.165Z,84.70
2022-07-31T09:43:56.289Z,84.90
2022-07-31T09:46:25.333Z,84.70
2022-07-31T09:49:21.163Z,84.60
2022-07-31T09:51:53.621Z,84.60
2022-07-31T09:54:23.457Z,85.80
2022-07-31T09:57:14.416Z,85.90
2022-07-31T09:59:45.270Z,86.60
2022-07-31T10:02:15.980Z,86.10
2022-07-31T10:04:48.378Z,85.90
2022-07-31T10:07:32.328Z,86.10
2022-07-31T10:10:14.505Z,86.50
2022-07-31T10:13:08.058Z,86.30
2022-07-31T10:15:37.409Z,86.50
2022-07-31T10:18:35.654Z,86.20
2022-07-31T10:21:43.780Z,84.50
2022-07-31T10:24:19.328Z,83.90
2022-07-31T10:27:00.265Z,81.60
2022-07-31T10:29:32.342Z,81.60
2022-07-31T10:32:02.537Z,81.20
2022-07-31T10:34:42.190Z,80.50
2022-07-31T10:37:49.024Z,80.70
2022-07-31T10:40:43.826Z,79.30
2022-07-31T10:43:31.266Z,79.30
2022-07-31T10:46:13.500Z,78.30
2022-07-31T10:49:08.334Z,79.00
2022-07-31T10:52:00.326Z,78.50
2022-07-31T10:55:02.178Z,78.50
2022-07-31T10:57:55.864Z,78.60
2022-07-31T11:00:40.564Z,78.00
2022-07-31T11:03:37.104Z,77.40
2022-07-31T11:06:41.426Z,76.60
2022-07-31T11:09:32.184Z,76.30
2022-07-31T11:12:29.770Z,77.50
2022-07-31T11:15:29.823Z,76.00
2022-07-31T11:18:28.661Z,76.40
2022-07-31T11:21:22.837Z,76.60
2022-07-31T11:24:02.127Z,76.40
2022-07-31T11:26:41.725Z,76.20
2022-07-31T11:29:58.837Z,75.80
2022-07-31T11:32:01.538Z,75.80
2022-07-31T11:34:29.215Z,76.80
2022-07-31T11:36:57.091Z,76.50
2022-07-31T11:39:36.875Z,76.10
2022-07-31T11:42:07.645Z,75.70
2022-07-31T11:44:35.959Z,76.90
2022-07-31T11:47:04.146Z,76.30
2022-07-31T11:50:01.327Z,75.80
2022-07-31T11:52:30.859Z,75.10
2022-07-31T11:55:09.296Z,74.60
2022-07-31T11:57:52.221Z,75.20
2022-07-31T12:00:26.454Z,75.40
2022-07-31T12:03:00.289Z,75.90
2022-07-31T12:05:39.025Z,75.50
2022-07-31T12:08:08.189Z,75.80
2022-07-31T12:10:36.208Z,76.70
2022-07-31T12:13:04.116Z,77.00
2022-07-31T12:15:35.187Z,77.60
2022-07-31T12:18:08.296Z,77.80
2022-07-31T12:20:42.244Z,77.70
2022-07-31T12:23:38.496Z,77.90
2022-07-31T12:26:25.258Z,78.10
2022-07-31T12:29:08.531Z,78.40
2022-07-31T12:31:55.549Z,79.30
2022-07-31T12:34:33.494Z,80.50
2022-07-31T12:37:04.320Z,81.40
2022-07-31T12:39:59.386Z,83.60
2022-07-31T12:42:39.282Z,83.80
2022-07-31T12:45:18.307Z,82.90
2022-07-31T12:47:53.411Z,82.20
2022-07-31T12:50:22.405Z,80.00
2022-07-31T12:52:50.243Z,80.10
2022-07-31T12:55:18.041Z,79.50
2022-07-31T12:57:51.380Z,78.30
2022-07-31T13:00:22.919Z,77.50
2022-07-31T13:02:57.143Z,78.00
2022-07-31T13:05:25.695Z,77.30
2022-07-31T13:07:56.647Z,77.10
2022-07-31T13:10:26.573Z,76.60
2022-07-31T13:13:00.336Z,76.10
2022-07-31T13:15:30.822Z,75.80
2022-07-31T13:18:01.951Z,74.50
2022-07-31T13:20:31.207Z,73.70
2022-07-31T13:22:59.639Z,74.60
2022-07-31T13:25:32.026Z,74.10
2022-07-31T13:28:02.688Z,74.30
2022-07-31T13:30:30.355Z,73.50
2022-07-31T13:32:57.964Z,73.80
2022-07-31T13:35:29.320Z,74.40
2022-07-31T13:37:57.316Z,75.20
2022-07-31T13:40:44.117Z,75.90
2022-07-31T13:43:12.435Z,75.40
2022-07-31T13:45:42.927Z,74.30
2022-07-31T13:48:10.733Z,74.00
2022-07-31T13:50:39.716Z,73.60
2022-07-31T13:53:12.311Z,73.10
2022-07-31T13:55:40.125Z,73.30
2022-07-31T13:58:13.807Z,73.90
2022-07-31T14:00:44.394Z,73.70
2022-07-31T14:03:12.944Z,74.10
2022-07-31T14:05:44.496Z,73.30
2022-07-31T14:08:33.179Z,73.80
2022-07-31T14:10:59.778Z,73.30
2022-07-31T14:13:27.578Z,72.20
2022-07-31T14:15:55.041Z,71.40
2022-07-31T14:18:23.474Z,70.70
2022-07-31T14:20:51.439Z,70.20
2022-07-31T14:23:19.239Z,70.00
2022-07-31T14:25:46.786Z,70.30
2022-07-31T14:28:14.332Z,69.50
2022-07-31T14:30:46.143Z,69.70
2022-07-31T14:33:15.593Z,69.50
2022-07-31T14:35:43.273Z,69.40
2022-07-31T14:38:13.777Z,69.00
2022-07-31T14:40:55.189Z,68.30
2022-07-31T14:43:22.824Z,66.90
2022-07-31T14:45:51.561Z,66.60
2022-07-31T14:48:19.916Z,66.50
2022-07-31T14:50:47.705Z,66.50
2022-07-31T14:53:17.594Z,67.10
2022-07-31T14:55:45.253Z,67.10
2022-07-31T14:58:12.835Z,66.80
2022-07-31T15:00:40.473Z,65.70
2022-07-31T15:03:08.373Z,64.30
2022-07-31T15:06:49.422Z,62.70
2022-07-31T15:08:23.673Z,63.60
2022-07-31T15:10:51.286Z,63.20
2022-07-31T15:13:18.966Z,60.90
2022-07-31T15:15:48.382Z,62.60
2022-07-31T15:18:15.875Z,61.80
2022-07-31T15:20:43.496Z,62.80
2022-07-31T15:23:11.217Z,63.50
2022-07-31T15:25:38.708Z,62.10
2022-07-31T15:28:09.182Z,61.60
2022-07-31T15:30:36.769Z,61.50
2022-07-31T15:33:04.399Z,61.90
2022-07-31T15:35:31.770Z,60.30
2022-07-31T15:37:59.469Z,59.30
2022-07-31T15:40:27.109Z,59.80
2022-07-31T15:42:54.998Z,59.90
2022-07-31T15:45:22.740Z,60.60
2022-07-31T15:47:50.299Z,61.40
2022-07-31T15:50:21.437Z,62.40
2022-07-31T15:52:49.994Z,63.50
2022-07-31T15:55:18.232Z,64.30
2022-07-31T15:57:45.839Z,65.20
2022-07-31T16:00:21.048Z,66.10
2022-07-31T16:02:51.967Z,67.00
2022-07-31T16:05:23.974Z,66.70
2022-07-31T16:08:29.639Z,65.20
2022-07-31T16:10:55.795Z,63.30
2022-07-31T16:13:24.196Z,61.60
2022-07-31T16:15:52.057Z,60.40
2022-07-31T16:18:22.774Z,59.50
2022-07-31T16:20:50.459Z,58.50
2022-07-31T16:23:18.029Z,57.00
2022-07-31T16:25:45.781Z,57.50
2022-07-31T16:28:21.139Z,56.00
2022-07-31T16:30:48.934Z,56.00
2022-07-31T16:33:16.727Z,55.50
2022-07-31T16:35:44.321Z,55.20
2022-07-31T16:38:11.866Z,55.80
2022-07-31T16:40:39.291Z,56.80
2022-07-31T16:43:50.290Z,58.60
2022-07-31T16:45:57.256Z,60.60
2022-07-31T16:48:25.042Z,62.50
2022-07-31T16:50:53.362Z,64.20
2022-07-31T16:54:10.936Z,66.20
2022-07-31T16:56:14.391Z,66.80
2022-07-31T16:58:43.729Z,67.90
2022-07-31T17:01:59.429Z,68.50
2022-07-31T17:04:03.828Z,69.30
2022-07-31T17:06:39.444Z,70.10
2022-07-31T17:09:15.200Z,70.60
2022-07-31T17:11:54.507Z,71.10
2022-07-31T17:14:25.656Z,72.00
2022-07-31T17:16:55.557Z,72.10
2022-07-31T17:19:41.571Z,72.60
2022-07-31T17:22:11.368Z,72.90
2022-07-31T17:24:40.166Z,73.60
2022-07-31T17:27:09.529Z,72.30
2022-07-31T17:29:38.634Z,71.80
2022-07-31T17:32:11.074Z,71.50
2022-07-31T17:34:40.040Z,71.10
2022-07-31T17:37:08.358Z,71.30
2022-07-31T17:39:36.453Z,71.70
2022-07-31T17:42:04.532Z,72.20
2022-07-31T17:44:32.149Z,72.70
2022-07-31T17:47:00.009Z,73.30
2022-07-31T17:49:33.265Z,73.90
2022-07-31T17:52:00.963Z,74.30
2022-07-31T17:54:30.677Z,75.10
2022-07-31T17:56:59.500Z,75.60
2022-07-31T17:59:27.949Z,76.40
2022-07-31T18:02:00.235Z,77.40
2022-07-31T18:04:30.245Z,78.70
2022-07-31T18:06:58.540Z,79.80
2022-07-31T18:09:26.861Z,80.70
2022-07-31T18:11:55.312Z,80.90
2022-07-31T18:14:24.489Z,81.10
2022-07-31T18:16:53.427Z,81.60
2022-07-31T18:19:22.263Z,82.10
2022-07-31T18:21:51.515Z,82.30
2022-07-31T18:24:20.990Z,82.50
2022-07-31T18:26:49.437Z,82.80
2022-07-31T18:29:17.819Z,82.90
2022-07-31T18:31:46.072Z,82.90
2022-07-31T18:34:14.582Z,83.50
2022-07-31T18:36:42.389Z,83.00
2022-07-31T18:39:10.104Z,83.10
2022-07-31T18:41:38.353Z,83.90
2022-07-31T18:44:06.360Z,82.90
2022-07-31T18:46:33.956Z,83.30
2022-07-31T18:49:01.584Z,84.80
2022-07-31T18:51:29.749Z,84.70
2022-07-31T18:53:57.819Z,83.90
2022-07-31T18:56:26.048Z,84.20
2022-07-31T18:58:54.773Z,84.70
2022-07-31T19:01:23.710Z,84.90
2022-07-31T19:03:52.369Z,85.20
2022-07-31T19:06:22.640Z,85.40
2022-07-31T19:08:52.099Z,85.90
2022-07-31T19:11:20.494Z,85.60
2022-07-31T19:13:48.133Z,85.80
2022-07-31T19:16:17.653Z,85.90
2022-07-31T19:18:50.200Z,85.70
2022-07-31T19:21:42.479Z,85.90
2022-07-31T19:24:10.986Z,86.10
2022-07-31T19:26:38.540Z,86.10
2022-07-31T19:29:07.576Z,86.10
2022-07-31T19:31:37.941Z,86.30
2022-07-31T19:34:05.619Z,86.30
2022-07-31T19:36:33.395Z,86.30
2022-07-31T19:39:01.072Z,86.90
2022-07-31T19:41:28.909Z,87.40
2022-07-31T19:43:56.645Z,87.60
2022-07-31T19:46:27.004Z,86.90
2022-07-31T19:48:54.709Z,86.70
2022-07-31T19:51:22.553Z,86.60
2022-07-31T19:53:50.265Z,86.50
2022-07-31T19:56:20.730Z,86.50
2022-07-31T19:58:49.932Z,86.50
2022-07-31T20:01:20.226Z,86.50
2022-07-31T20:03:49.284Z,86.60
2022-07-31T20:06:17.425Z,86.90
2022-07-31T20:08:45.344Z,87.00
2022-07-31T20:11:17.245Z,87.80
2022-07-31T20:13:45.801Z,88.20
2022-07-31T20:16:15.693Z,87.70
2022-07-31T20:18:43.965Z,88.10
2022-07-31T20:21:12.938Z,88.50
2022-07-31T20:23:41.691Z,88.70
2022-07-31T20:26:12.309Z,89.10
2022-07-31T20:28:40.456Z,89.10
2022-07-31T20:31:15.868Z,89.40
2022-07-31T20:33:56.694Z,90.00
2022-07-31T20:36:51.111Z,90.10
2022-07-31T20:39:25.793Z,90.60
2022-07-31T20:42:01.367Z,90.50
2022-07-31T20:44:29.000Z,90.50
2022-07-31T20:46:56.629Z,91.10
2022-07-31T20:49:35.091Z,90.90
2022-07-31T20:52:05.051Z,91.00
2022-07-31T20:54:34.639Z,91.10
2022-07-31T20:57:02.730Z,91.20
2022-07-31T20:59:30.680Z,91.30
2022-07-31T21:01:58.493Z,91.40
2022-07-31T21:04:26.224Z,91.50
2022-07-31T21:06:55.918Z,91.70
2022-07-31T21:09:23.716Z,91.80
2022-07-31T21:11:51.433Z,91.90
2022-07-31T21:14:18.995Z,92.20
2022-07-31T21:16:46.790Z,92.10
2022-07-31T21:19:14.392Z,92.10
2022-07-31T21:21:41.997Z,92.20
2022-07-31T21:24:09.925Z,92.20
2022-07-31T21:26:41.505Z,92.30
2022-07-31T21:29:10.189Z,92.20
2022-07-31T21:31:38.379Z,92.30
2022-07-31T21:34:18.130Z,92.40
2022-07-31T21:36:47.475Z,92.20
2022-07-31T21:39:18.747Z,92.70
2022-07-31T21:41:47.105Z,92.40
2022-07-31T21:44:14.952Z,92.50
2022-07-31T21:46:51.773Z,92.70
2022-07-31T21:49:21.304Z,92.90
2022-07-31T21:51:51.363Z,93.10
2022-07-31T21:54:19.473Z,93.20
2022-07-31T21:56:47.160Z,93.40
2022-07-31T21:59:15.437Z,94.00
2022-07-31T22:01:57.852Z,93.40
2022-07-31T22:04:34.317Z,93.50
2022-07-31T22:07:20.967Z,93.50
2022-07-31T22:09:48.574Z,93.50
2022-07-31T22:12:16.147Z,93.50
2022-07-31T22:14:43.752Z,93.60
2022-07-31T22:17:13.063Z,93.60
2022-07-31T22:19:44.343Z,93.70
2022-07-31T22:22:15.947Z,93.60
2022-07-31T22:24:43.644Z,93.60
2022-07-31T22:27:33.666Z,93.70
2022-07-31T22:30:05.583Z,93.70
2022-07-31T22:32:33.411Z,93.70
2022-07-31T22:35:01.207Z,93.40
2022-07-31T22:37:29.248Z,93.80
2022-07-31T22:39:57.959Z,93.70
2022-07-31T22:42:27.779Z,94.10
2022-07-31T22:44:56.960Z,93.70
2022-07-31T22:47:27.112Z,93.80
2022-07-31T22:49:55.146Z,93.90
2022-07-31T22:52:23.319Z,94.10
2022-07-31T22:55:02.772Z,94.30
2022-07-31T22:57:33.449Z,94.40
2022-07-31T23:00:01.625Z,94.70
2022-07-31T23:02:29.335Z,94.90
2022-07-31T23:04:56.876Z,95.60
2022-07-31T23:07:24.446Z,95.20
2022-07-31T23:09:52.036Z,95.50
2022-07-31T23:12:19.676Z,95.60
2022-07-31T23:14:47.314Z,95.80
2022-07-31T23:17:23.662Z,96.10
2022-07-31T23:19:53.758Z,96.30
2022-07-31T23:22:33.920Z,96.40
2022-07-31T23:25:06.034Z,96.60
2022-07-31T23:27:33.869Z,96.80
2022-07-31T23:30:01.809Z,96.90
2022-07-31T23:32:29.436Z,96.90
2022-07-31T23:34:57.056Z,96.90
2022-07-31T23:37:24.644Z,96.90
2022-07-31T23:39:52.201Z,96.90
2022-07-31T23:42:37.970Z,97.00
2022-07-31T23:45:12.362Z,97.00
2022-07-31T23:47:45.444Z,97.10
2022-07-31T23:50:15.439Z,97.00
2022-07-31T23:52:43.891Z,97.00
2022-07-31T23:55:12.055Z,97.00
2022-07-31T23:57:41.064Z,97.00
